Aérodrome :
LOGIN :

S'inscrire | Disclaimer

   EN    FR    IT 

 










Légende :    VFR   VFR Marginal   IFR   IFR Intensif   IFR Très Intensif
Visi : 
Plafond : 
>= 8 km
>= 3000ft
5 à 8 km
1000 à 3000 ft
1500m à 5 km
500 à 1000 ft
800 à 1500m
200 à 500 ft
< 800m
< 200 ft
Symboles :   Orages  Brouillard  Fortes neiges  Fortes précipitations  Vent > 20 kt
SIGMETs :   Divers  Orages  Givrage  Turbulence  Onde Orograph.  Cendres Volcan.







- Altitude de l'aérodrome : 42 ft
- Code IATA : KGD


UMKK - Khrabrava - Kaliningrad

DERNIER METAR :
  • 201230Z 13006MPS 100V160 9999 SCT043 27/16 Q1006 WS R06 R06/CLRD60 NOSIG RMK QFE753/1005

METARs EXPIRÉS :
  • 201200Z 12006MPS 9999 SCT043 27/17 Q1006 R06/CLRD60 NOSIG RMK QFE753/1005
  • 201130Z 12007MPS CAVOK 27/16 Q1007 R06/60D NOSIG RMK QFE754/1005
  • 201100Z 12007MPS 090V150 CAVOK 27/16 Q1007 R06/60D NOSIG RMK QFE754/1005
  • 201030Z 12006MPS CAVOK 26/16 Q1007 R06/60D NOSIG RMK QFE754/1005
  • 201000Z 11006MPS 080V140 CAVOK 25/16 Q1007 R06/60D NOSIG RMK QFE754/1006
  • 200930Z 11006MPS 080V150 CAVOK 24/17 Q1007 R06/60D NOSIG RMK QFE754/1006

TAF TAF UMKK
Valide du 20 à 12h jusqu'au 21 à 12h UTC


201059Z 2012/2112 12007G12MPS 9999 SCT020
TEMPO 2012/2018 09006MPS 4000 -SHRA SCT011 BKN020CB
PROB40
TEMPO 2014/2020 -TSRA BKN015CB
BECMG 2018/2020 10003G09MPS
TEMPO 2100/2106 3100 -SHRA BR SCT011 BKN020CB
BECMG 2106/2108 13007G12MPS SCT011 SCT020CB



MET'MAP, la Météo Aéronautique d'un coup d'oeil ! - Copyright ORBIFLY Décembre 2007 - Disclaimer

ORBIFLY MET'MAP TEAM :

Programmation & Développement : Alexandra Zaïnal
Conception & Développement : Baudouin d'Aumeries
Co-Programmation & Développement : Marc-Olivier Méhu
Soutien technique & logistique : Manuel Goepfert

Contact : metmap@orbifly.com




SOURCES & CREDITS :

   NOAA